Time;durP1;ratioP1;P1;durP2;ratioP2;P2;SDS_P1;SDS_P2;PMS_P1;PMS_P2;Temp;Humidity;BMP_temperature;BMP_pressure;BME280_temperature;BME280_humidity;BME280_pressure;Samples;Min_cycle;Max_cycle;Signal;HPM_P1;HPM_P2
2022/10/26 00:01:20;;;;;;;7.57;4.30;;;;;;;15.37;86.54;100576.22;5059569;28;20566;-62
2022/10/26 00:03:48;;;;;;;9.47;4.80;;;;;;;15.32;86.31;100568.72;5057724;28;20307;-60
2022/10/26 00:06:18;;;;;;;8.33;4.73;;;;;;;15.26;87.06;100572.09;5057807;28;20315;-61
2022/10/26 00:08:47;;;;;;;10.73;4.93;;;;;;;15.29;87.65;100574.44;5059806;28;20249;-62
2022/10/26 00:11:15;;;;;;;10.77;4.77;;;;;;;15.29;87.58;100573.59;5050276;28;20871;-61
2022/10/26 00:13:43;;;;;;;8.90;4.70;;;;;;;15.31;87.56;100574.22;5052945;28;20235;-61
2022/10/26 00:16:13;;;;;;;9.73;4.47;;;;;;;15.23;88.21;100574.28;5055100;28;20775;-61
2022/10/26 00:18:41;;;;;;;8.50;4.97;;;;;;;15.25;88.16;100585.63;5052126;28;20288;-61
2022/10/26 00:21:10;;;;;;;10.73;5.00;;;;;;;15.25;88.62;100578.47;5051913;28;20243;-60
2022/10/26 00:23:38;;;;;;;8.93;4.27;;;;;;;15.32;88.18;100579.41;5053240;28;20211;-60
2022/10/26 00:26:08;;;;;;;10.57;4.20;;;;;;;15.36;88.04;100562.03;5061438;28;20216;-61
2022/10/26 00:28:36;;;;;;;11.73;4.20;;;;;;;15.35;87.65;100557.69;5053130;28;20231;-61
2022/10/26 00:31:06;;;;;;;9.57;4.67;;;;;;;15.35;87.82;100567.53;5051709;28;20237;-61
2022/10/26 00:33:33;;;;;;;8.63;4.73;;;;;;;15.35;87.84;100579.06;5048228;28;20208;-61
2022/10/26 00:36:01;;;;;;;11.60;4.63;;;;;;;15.40;87.37;100581.19;5055655;28;20208;-61
2022/10/26 00:38:29;;;;;;;10.80;5.07;;;;;;;15.34;88.00;100582.75;5053399;28;20211;-61
2022/10/26 00:40:57;;;;;;;10.37;4.37;;;;;;;15.32;88.76;100582.09;5052689;28;20661;-59
2022/10/26 00:43:36;;;;;;;8.87;4.57;;;;;;;15.33;88.57;100581.06;5055269;28;20187;-60
2022/10/26 00:46:08;;;;;;;9.97;4.57;;;;;;;15.32;88.29;100590.09;5054515;28;20238;-61
2022/10/26 00:48:39;;;;;;;8.63;4.50;;;;;;;15.29;88.60;100587.78;5050240;28;20743;-60
2022/10/26 00:51:10;;;;;;;12.53;4.80;;;;;;;15.26;88.96;100580.13;5049904;28;20566;-62
2022/10/26 00:53:38;;;;;;;15.63;5.37;;;;;;;15.27;89.17;100579.13;5052677;28;20865;-62
2022/10/26 00:56:07;;;;;;;11.33;4.80;;;;;;;15.33;88.81;100574.91;5049208;28;20208;-61
2022/10/26 00:58:37;;;;;;;8.70;4.53;;;;;;;15.29;88.86;100568.25;5053624;28;20216;-61
2022/10/26 01:01:05;;;;;;;13.93;4.57;;;;;;;15.24;89.14;100579.47;5050783;28;20200;-61
2022/10/26 01:03:35;;;;;;;11.83;5.10;;;;;;;15.27;88.90;100588.97;5058660;28;20262;-62
2022/10/26 01:06:05;;;;;;;13.17;4.97;;;;;;;15.23;89.69;100584.97;5055742;28;20528;-60
2022/10/26 01:08:33;;;;;;;7.63;4.40;;;;;;;15.20;89.86;100596.88;5054641;28;20628;-61
2022/10/26 01:11:01;;;;;;;12.03;4.70;;;;;;;15.22;89.63;100589.47;5054667;28;20286;-60
2022/10/26 01:13:34;;;;;;;12.60;4.13;;;;;;;15.20;89.77;100590.69;5052150;28;20231;-60
2022/10/26 01:16:14;;;;;;;7.77;4.03;;;;;;;15.27;89.00;100587.13;5062901;28;20740;-60
2022/10/26 01:18:49;;;;;;;11.00;3.80;;;;;;;15.25;89.00;100590.97;5057976;28;20203;-59
2022/10/26 01:21:45;;;;;;;9.00;3.90;;;;;;;15.23;89.01;100574.28;5052850;28;20203;-59
2022/10/26 01:24:39;;;;;;;9.97;3.70;;;;;;;15.29;88.32;100574.44;5046716;28;20231;-60
2022/10/26 01:27:19;;;;;;;8.20;4.07;;;;;;;15.32;87.97;100567.88;5058742;28;20239;-59
2022/10/26 01:30:01;;;;;;;11.27;4.10;;;;;;;15.31;88.98;100567.06;5055420;28;20830;-60
2022/10/26 01:32:35;;;;;;;8.00;3.93;;;;;;;15.28;88.96;100556.75;5049550;28;20200;-61
2022/10/26 01:35:09;;;;;;;12.37;4.33;;;;;;;15.24;89.53;100542.06;5061754;28;20314;-59
2022/10/26 01:37:38;;;;;;;9.47;4.77;;;;;;;15.18;90.27;100550.78;5056332;28;20206;-59
2022/10/26 01:40:14;;;;;;;10.20;4.10;;;;;;;15.20;90.51;100548.78;5051913;28;20543;-60
2022/10/26 01:42:46;;;;;;;11.27;3.97;;;;;;;15.26;89.86;100547.22;5050926;28;20230;-60
2022/10/26 01:45:15;;;;;;;16.00;4.30;;;;;;;15.24;89.59;100543.91;5053386;28;20207;-60
2022/10/26 01:47:47;;;;;;;12.07;4.00;;;;;;;15.17;89.90;100538.44;5049836;28;20677;-60
2022/10/26 01:50:17;;;;;;;13.73;4.30;;;;;;;15.19;90.30;100524.91;5058867;28;20224;-60
2022/10/26 01:52:45;;;;;;;10.90;3.87;;;;;;;15.23;90.17;100532.38;5053240;28;20207;-61
2022/10/26 01:55:43;;;;;;;10.63;4.43;;;;;;;15.25;89.83;100537.56;5047783;28;20231;-62
2022/10/26 01:58:23;;;;;;;7.70;3.57;;;;;;;15.23;90.94;100547.56;5054392;28;20257;-62
2022/10/26 02:00:59;;;;;;;9.83;4.10;;;;;;;15.25;90.53;100553.56;5053900;28;20650;-62
2022/10/26 02:03:33;;;;;;;9.83;4.30;;;;;;;15.25;90.29;100553.56;5053241;28;20208;-60
2022/10/26 02:06:09;;;;;;;9.03;3.93;;;;;;;15.31;90.13;100556.38;5054634;28;20658;-60
2022/10/26 02:08:54;;;;;;;8.07;3.70;;;;;;;15.34;89.48;100552.53;5054682;28;20273;-61
2022/10/26 02:11:36;;;;;;;12.50;4.10;;;;;;;15.29;89.62;100547.72;5049444;28;20235;-61
2022/10/26 02:14:10;;;;;;;10.13;3.57;;;;;;;15.35;89.14;100539.00;5051097;28;20232;-61
2022/10/26 02:16:44;;;;;;;12.30;4.07;;;;;;;15.35;89.45;100535.47;5049523;28;20207;-62
2022/10/26 02:19:26;;;;;;;9.23;4.00;;;;;;;15.36;89.06;100521.97;5054195;28;20259;-61
2022/10/26 02:22:00;;;;;;;8.67;4.40;;;;;;;15.37;89.28;100528.13;5049704;28;20212;-61
2022/10/26 02:24:31;;;;;;;11.10;4.07;;;;;;;15.34;89.59;100531.97;5055660;28;20231;-61
2022/10/26 02:27:01;;;;;;;10.43;4.17;;;;;;;15.36;89.55;100537.16;5056775;28;20313;-61
2022/10/26 02:29:31;;;;;;;10.10;3.80;;;;;;;15.33;89.66;100527.66;5054603;28;20278;-61
2022/10/26 02:32:01;;;;;;;10.37;4.43;;;;;;;15.35;89.19;100522.97;5059331;28;20253;-61
2022/10/26 02:34:31;;;;;;;10.03;4.07;;;;;;;15.34;89.36;100515.13;5055063;28;20265;-61
2022/10/26 02:37:01;;;;;;;9.90;4.10;;;;;;;15.33;89.12;100511.63;5050499;28;20265;-60
2022/10/26 02:39:33;;;;;;;8.53;3.73;;;;;;;15.31;89.82;100524.31;5050190;28;20212;-61
2022/10/26 02:42:04;;;;;;;9.80;3.47;;;;;;;15.38;88.82;100511.94;5053563;28;21146;-61
2022/10/26 02:44:36;;;;;;;6.00;3.10;;;;;;;15.35;89.04;100509.59;5054549;28;20207;-61
2022/10/26 02:47:04;;;;;;;13.63;3.77;;;;;;;15.37;88.79;100525.47;5050301;28;20685;-60
2022/10/26 02:49:33;;;;;;;9.70;3.80;;;;;;;15.41;88.34;100524.06;5049741;28;20229;-60
2022/10/26 02:52:05;;;;;;;8.53;3.47;;;;;;;15.32;88.47;100523.31;5052176;28;20208;-61
2022/10/26 02:54:41;;;;;;;8.87;3.63;;;;;;;15.28;88.85;100518.50;5049486;28;20271;-61
2022/10/26 02:57:14;;;;;;;10.93;3.80;;;;;;;15.23;88.92;100516.34;5052180;28;20334;-61
2022/10/26 02:59:47;;;;;;;8.63;3.80;;;;;;;15.17;90.01;100527.75;5053259;28;20249;-61
2022/10/26 03:02:17;;;;;;;13.93;4.47;;;;;;;15.21;89.87;100529.09;5052211;28;20201;-60
2022/10/26 03:04:49;;;;;;;8.37;4.03;;;;;;;15.19;90.19;100532.94;5056457;28;20262;-61
2022/10/26 03:07:21;;;;;;;11.17;4.47;;;;;;;15.13;90.67;100545.13;5056100;28;20657;-61
2022/10/26 03:09:48;;;;;;;9.17;3.90;;;;;;;15.22;90.32;100557.44;5065698;28;20215;-60
2022/10/26 03:12:16;;;;;;;14.43;4.57;;;;;;;15.27;89.67;100555.06;5061875;28;20249;-60
2022/10/26 03:14:44;;;;;;;9.03;4.00;;;;;;;15.20;89.78;100529.25;5056120;28;20618;-61
2022/10/26 03:17:11;;;;;;;8.17;3.77;;;;;;;15.21;90.22;100538.94;5061055;28;20636;-61
2022/10/26 03:19:39;;;;;;;10.50;4.10;;;;;;;15.29;89.91;100549.56;5058669;28;20212;-60
2022/10/26 03:22:08;;;;;;;11.07;4.00;;;;;;;15.24;90.09;100550.06;5056312;28;20216;-60
2022/10/26 03:24:36;;;;;;;8.20;3.73;;;;;;;15.21;90.47;100566.47;5060959;28;20239;-62
2022/10/26 03:27:03;;;;;;;16.40;4.60;;;;;;;15.20;90.69;100583.50;5064893;28;20959;-61
2022/10/26 03:29:31;;;;;;;10.00;4.00;;;;;;;15.16;91.26;100581.34;5056369;28;20228;-61
2022/10/26 03:31:58;;;;;;;11.63;3.67;;;;;;;15.12;91.76;100575.53;5059334;28;20278;-61
2022/10/26 03:34:26;;;;;;;8.03;3.83;;;;;;;15.18;91.45;100577.50;5050598;28;20261;-61
2022/10/26 03:36:53;;;;;;;7.33;3.27;;;;;;;15.25;90.80;100567.78;5046497;28;20220;-61
2022/10/26 03:39:22;;;;;;;13.77;4.30;;;;;;;15.32;89.58;100570.56;5046786;28;20623;-60
2022/10/26 03:41:50;;;;;;;11.40;4.30;;;;;;;15.31;90.17;100568.91;5045542;28;20208;-62
2022/10/26 03:44:17;;;;;;;7.43;3.83;;;;;;;15.32;89.58;100567.88;5048471;28;20200;-61
2022/10/26 03:46:45;;;;;;;8.80;4.00;;;;;;;15.18;91.67;100553.47;5045409;28;21192;-60
2022/10/26 03:49:13;;;;;;;6.63;3.93;;;;;;;15.13;92.47;100545.13;5044029;28;20274;-62
2022/10/26 03:51:40;;;;;;;6.03;3.63;;;;;;;15.08;93.26;100539.50;5044995;28;20269;-61
2022/10/26 03:54:08;;;;;;;9.30;4.60;;;;;;;15.08;93.01;100539.50;5044815;28;20295;-61
2022/10/26 03:56:37;;;;;;;10.80;4.43;;;;;;;15.11;93.22;100544.50;5045819;28;20200;-61
2022/10/26 03:59:05;;;;;;;10.63;4.57;;;;;;;15.13;92.42;100538.97;5051932;28;20235;-61
2022/10/26 04:01:34;;;;;;;11.37;3.97;;;;;;;15.14;92.00;100528.09;5048515;28;20208;-60
2022/10/26 04:04:01;;;;;;;12.43;4.03;;;;;;;15.18;91.42;100523.25;5051758;28;20734;-60
2022/10/26 04:06:29;;;;;;;10.57;4.70;;;;;;;15.23;91.18;100520.84;5051759;28;20208;-60
2022/10/26 04:09:01;;;;;;;14.70;4.17;;;;;;;15.16;90.94;100520.75;5054953;28;20227;-62
2022/10/26 04:11:28;;;;;;;9.23;3.70;;;;;;;15.10;91.30;100505.44;5056783;28;20295;-61
2022/10/26 04:13:58;;;;;;;11.30;4.30;;;;;;;15.12;91.27;100506.09;5051766;28;20280;-60
2022/10/26 04:16:26;;;;;;;12.73;3.73;;;;;;;15.18;90.71;100509.88;5054036;28;20211;-60
2022/10/26 04:18:59;;;;;;;12.93;3.97;;;;;;;15.11;90.18;100507.09;5052685;28;20656;-62
2022/10/26 04:21:27;;;;;;;7.17;3.60;;;;;;;15.08;90.57;100504.78;5052520;28;20256;-61
2022/10/26 04:23:55;;;;;;;12.30;4.07;;;;;;;15.12;90.74;100511.44;5052184;28;21001;-60
2022/10/26 04:26:22;;;;;;;11.23;4.03;;;;;;;15.10;90.74;100516.13;5053801;28;20204;-61
2022/10/26 04:28:50;;;;;;;13.67;4.67;;;;;;;15.03;91.29;100516.00;5049879;28;20243;-61
2022/10/26 04:31:19;;;;;;;12.47;4.10;;;;;;;15.08;91.75;100518.13;5050424;28;20253;-60
2022/10/26 04:33:46;;;;;;;10.30;4.17;;;;;;;15.13;91.09;100526.44;5055454;28;20211;-62
2022/10/26 04:36:14;;;;;;;6.80;3.53;;;;;;;15.15;90.95;100523.59;5050271;28;20207;-62
2022/10/26 04:38:42;;;;;;;8.93;3.73;;;;;;;15.10;91.55;100526.81;5059506;28;20813;-61
2022/10/26 04:41:09;;;;;;;12.63;4.63;;;;;;;15.14;91.38;100528.09;5051259;28;20207;-61
2022/10/26 04:43:37;;;;;;;11.53;4.10;;;;;;;15.06;92.36;100541.50;5054536;28;20233;-60
2022/10/26 04:46:05;;;;;;;8.10;3.87;;;;;;;15.01;92.92;100549.22;5049442;28;20215;-61
2022/10/26 04:48:34;;;;;;;9.40;4.33;;;;;;;14.98;93.23;100545.03;5045139;28;20888;-61
2022/10/26 04:51:01;;;;;;;8.07;4.20;;;;;;;14.94;93.88;100545.59;5049131;28;21172;-60
2022/10/26 04:53:29;;;;;;;9.60;4.53;;;;;;;14.98;93.82;100546.88;5047763;28;20208;-61
2022/10/26 04:55:57;;;;;;;10.40;4.40;;;;;;;14.98;93.40;100546.88;5048469;28;20240;-58
2022/10/26 04:58:25;;;;;;;10.70;3.80;;;;;;;14.97;93.36;100547.88;5050596;28;20208;-62
2022/10/26 05:00:54;;;;;;;10.97;4.20;;;;;;;14.98;93.23;100538.88;5048070;28;20220;-61
2022/10/26 05:03:22;;;;;;;13.03;4.17;;;;;;;15.06;92.44;100528.97;5045429;28;20272;-59
2022/10/26 05:05:51;;;;;;;9.43;4.23;;;;;;;15.15;91.63;100524.41;5055191;28;20203;-59
2022/10/26 05:08:19;;;;;;;9.80;4.50;;;;;;;15.22;90.66;100525.38;5052622;28;20223;-60
2022/10/26 05:10:48;;;;;;;11.87;4.17;;;;;;;15.19;90.86;100527.59;5051553;28;20208;-60
2022/10/26 05:13:16;;;;;;;7.20;4.50;;;;;;;15.09;92.45;100518.97;5051810;28;20781;-60
2022/10/26 05:15:44;;;;;;;10.70;4.53;;;;;;;15.13;92.00;100526.44;5049971;28;20591;-60
2022/10/26 05:18:12;;;;;;;12.47;5.07;;;;;;;15.10;91.75;100526.81;5053000;28;20215;-59
2022/10/26 05:20:39;;;;;;;8.23;4.57;;;;;;;15.10;91.62;100521.47;5054015;28;20276;-61
2022/10/26 05:23:11;;;;;;;9.33;4.30;;;;;;;15.16;91.26;100520.75;5052704;28;20245;-60
2022/10/26 05:25:38;;;;;;;11.50;5.07;;;;;;;15.13;91.20;100514.94;5046578;28;20276;-62
2022/10/26 05:28:10;;;;;;;13.90;5.20;;;;;;;15.11;91.82;100516.94;5056584;28;21996;-61
2022/10/26 05:30:38;;;;;;;12.20;5.27;;;;;;;15.10;91.96;100525.97;5049585;28;20278;-61
2022/10/26 05:33:06;;;;;;;9.80;4.97;;;;;;;15.04;92.49;100543.50;5049977;28;20216;-62
2022/10/26 05:35:34;;;;;;;10.57;5.37;;;;;;;15.01;92.92;100552.72;5052309;28;20216;-60
2022/10/26 05:38:07;;;;;;;10.77;4.93;;;;;;;15.09;92.48;100546.50;5046811;28;20212;-60
2022/10/26 05:40:36;;;;;;;8.70;4.50;;;;;;;15.06;92.73;100552.19;5045718;28;20261;-62
2022/10/26 05:43:04;;;;;;;11.53;4.77;;;;;;;15.12;92.21;100548.84;5045824;28;20638;-61
2022/10/26 05:45:32;;;;;;;9.43;5.27;;;;;;;15.12;91.91;100548.84;5047722;28;20212;-61
2022/10/26 05:47:59;;;;;;;10.37;4.57;;;;;;;14.99;92.45;100551.22;5048849;28;20208;-61
2022/10/26 05:50:29;;;;;;;11.30;4.40;;;;;;;14.97;92.81;100551.38;5048118;28;20307;-60
2022/10/26 05:52:57;;;;;;;15.30;5.00;;;;;;;14.96;92.70;100564.91;5047195;28;20224;-61
2022/10/26 05:55:25;;;;;;;10.53;4.90;;;;;;;15.00;93.04;100568.91;5046212;28;20199;-60
2022/10/26 05:57:55;;;;;;;12.83;5.33;;;;;;;15.10;92.00;100568.69;5052481;28;20261;-62
2022/10/26 06:00:25;;;;;;;10.60;4.83;;;;;;;15.17;91.34;100569.66;5050676;28;20254;-61
2022/10/26 06:03:06;;;;;;;8.47;4.40;;;;;;;15.16;91.57;100578.66;5051485;28;20605;-60
2022/10/26 06:05:38;;;;;;;13.33;5.57;;;;;;;15.09;91.80;100573.22;5051756;28;20569;-61
2022/10/26 06:08:09;;;;;;;12.47;5.27;;;;;;;15.09;91.83;100578.53;5046087;28;20204;-62
2022/10/26 06:10:38;;;;;;;8.33;4.50;;;;;;;15.06;92.13;100581.56;5048236;28;20766;-60
2022/10/26 06:13:07;;;;;;;8.23;4.57;;;;;;;15.10;91.90;100580.22;5052610;28;20230;-59
2022/10/26 06:15:45;;;;;;;9.10;4.50;;;;;;;15.02;91.95;100580.25;5045375;28;21033;-59
2022/10/26 06:18:19;;;;;;;10.23;4.47;;;;;;;14.97;92.83;100590.59;5045301;28;20200;-61
2022/10/26 06:20:57;;;;;;;11.07;4.53;;;;;;;14.94;92.85;100590.97;5047380;28;20687;-60
2022/10/26 06:23:44;;;;;;;8.57;4.73;;;;;;;14.89;93.44;100595.97;5051460;28;20266;-60
2022/10/26 06:26:25;;;;;;;10.90;4.40;;;;;;;14.87;93.81;100603.31;5047748;28;20227;-61
2022/10/26 06:29:02;;;;;;;10.37;4.70;;;;;;;14.85;94.34;100603.53;5052933;28;21168;-61
2022/10/26 06:31:30;;;;;;;9.07;3.67;;;;;;;14.87;93.90;100606.00;5053836;28;20629;-60
2022/10/26 06:34:00;;;;;;;8.43;4.07;;;;;;;14.87;94.42;100603.31;5049083;28;21093;-61
2022/10/26 06:36:28;;;;;;;11.03;4.00;;;;;;;14.82;94.76;100603.03;5050189;28;20556;-60
2022/10/26 06:39:01;;;;;;;8.67;4.13;;;;;;;14.81;95.16;100607.53;5051296;28;20211;-61
2022/10/26 06:41:32;;;;;;;7.10;3.97;;;;;;;14.81;95.49;100601.34;5051848;28;20314;-60
2022/10/26 06:44:02;;;;;;;9.43;4.13;;;;;;;14.84;95.50;100603.69;5050407;28;20603;-61
2022/10/26 06:46:39;;;;;;;7.40;4.00;;;;;;;14.79;96.02;100608.69;5048875;28;20208;-61
2022/10/26 06:49:13;;;;;;;7.03;4.10;;;;;;;14.82;96.29;100611.88;5049476;28;21821;-60
2022/10/26 06:51:47;;;;;;;7.17;4.30;;;;;;;14.89;95.74;100618.19;5047305;28;20603;-60
2022/10/26 06:54:23;;;;;;;10.20;4.37;;;;;;;14.90;95.96;100616.34;5054511;28;20666;-60
2022/10/26 06:56:52;;;;;;;14.80;4.87;;;;;;;14.99;95.42;100631.31;5050209;28;20214;-61
2022/10/26 06:59:32;;;;;;;9.47;4.70;;;;;;;15.09;95.10;100634.63;5046424;28;20275;-60
2022/10/26 07:01:59;;;;;;;10.70;4.23;;;;;;;15.17;94.15;100639.94;5046603;28;20660;-61
2022/10/26 07:04:32;;;;;;;10.23;4.63;;;;;;;15.23;94.01;100639.22;5060962;28;20219;-62
2022/10/26 07:07:00;;;;;;;13.17;4.00;;;;;;;15.28;93.75;100636.88;5056469;28;20336;-61
2022/10/26 07:09:28;;;;;;;8.77;4.17;;;;;;;15.28;93.82;100642.22;5062206;28;20208;-60
2022/10/26 07:11:55;;;;;;;10.03;4.00;;;;;;;15.23;94.07;100647.25;5055089;28;20216;-61
2022/10/26 07:14:24;;;;;;;6.57;3.40;;;;;;;15.20;94.15;100657.47;5066479;28;20226;-61
2022/10/26 07:16:53;;;;;;;8.23;3.80;;;;;;;15.14;94.76;100645.63;5061168;28;20208;-62
2022/10/26 07:19:20;;;;;;;7.80;3.70;;;;;;;15.10;95.19;100655.00;5057758;28;20706;-61
2022/10/26 07:21:48;;;;;;;9.57;3.60;;;;;;;15.13;95.04;100656.50;5060276;28;20639;-61
2022/10/26 07:24:16;;;;;;;13.67;4.23;;;;;;;15.13;95.95;100657.31;5055935;28;20318;-60
2022/10/26 07:26:44;;;;;;;12.53;4.07;;;;;;;15.20;95.16;100663.66;5063838;28;20257;-61
2022/10/26 07:29:12;;;;;;;10.47;3.87;;;;;;;15.22;95.00;100647.41;5054371;28;20226;-61
2022/10/26 07:31:41;;;;;;;9.50;3.87;;;;;;;15.17;96.04;100663.97;5056162;28;20228;-61
2022/10/26 07:34:09;;;;;;;9.80;4.47;;;;;;;15.23;95.67;100668.63;5055381;28;20203;-61
2022/10/26 07:36:38;;;;;;;9.53;4.10;;;;;;;15.27;95.57;100669.13;5047983;28;20215;-62
2022/10/26 07:39:05;;;;;;;7.67;4.17;;;;;;;15.34;95.15;100670.91;5048249;28;20208;-61
2022/10/26 07:41:34;;;;;;;10.87;4.37;;;;;;;15.38;94.72;100674.91;5047148;28;20233;-62
2022/10/26 07:44:01;;;;;;;9.30;4.20;;;;;;;15.41;94.51;100673.72;5050587;28;20203;-62
2022/10/26 07:46:29;;;;;;;12.03;4.57;;;;;;;15.44;94.47;100682.22;5047179;28;20222;-61
2022/10/26 07:48:58;;;;;;;10.43;4.30;;;;;;;15.47;94.74;100672.22;5048207;28;20212;-63
2022/10/26 07:51:26;;;;;;;8.07;4.27;;;;;;;15.50;94.97;100682.53;5044140;28;20871;-59
2022/10/26 07:53:53;;;;;;;19.13;6.67;;;;;;;15.53;94.53;100676.84;5051877;28;20304;-58
2022/10/26 07:56:21;;;;;;;22.93;7.30;;;;;;;15.56;94.17;100676.53;5050072;28;20825;-60
2022/10/26 07:58:52;;;;;;;15.80;5.73;;;;;;;15.62;94.19;100689.19;5048618;28;20985;-60
2022/10/26 08:01:19;;;;;;;12.53;5.13;;;;;;;15.67;93.64;100690.31;5050147;28;20208;-61
2022/10/26 08:03:47;;;;;;;10.77;5.30;;;;;;;15.79;93.32;100682.75;5052415;28;20236;-61
2022/10/26 08:06:16;;;;;;;8.43;4.47;;;;;;;15.94;92.19;100688.97;5046757;28;20231;-63
2022/10/26 08:08:45;;;;;;;10.33;4.97;;;;;;;16.05;91.25;100693.94;5049038;28;20216;-63
2022/10/26 08:11:14;;;;;;;15.60;4.63;;;;;;;16.23;90.73;100698.97;5050727;28;20238;-62
2022/10/26 08:13:42;;;;;;;14.23;4.53;;;;;;;16.36;90.12;100701.06;5058253;28;20235;-62
2022/10/26 08:16:10;;;;;;;10.17;4.07;;;;;;;16.44;89.89;100695.63;5061888;28;20203;-63
2022/10/26 08:18:38;;;;;;;8.87;4.07;;;;;;;16.60;88.45;100708.88;5052554;28;20265;-63
2022/10/26 08:21:08;;;;;;;11.93;4.77;;;;;;;16.74;88.04;100704.59;5053139;28;20666;-63
2022/10/26 08:23:41;;;;;;;10.27;4.00;;;;;;;16.78;87.00;100696.00;5053024;28;20211;-63
2022/10/26 08:26:10;;;;;;;11.17;3.90;;;;;;;16.76;87.57;100698.03;5060065;28;20261;-63
2022/10/26 08:28:39;;;;;;;11.20;4.20;;;;;;;16.79;87.38;100703.03;5055394;28;20246;-63
2022/10/26 08:31:07;;;;;;;9.53;4.20;;;;;;;16.85;87.36;100701.47;5051143;28;20243;-63
2022/10/26 08:33:34;;;;;;;11.27;4.20;;;;;;;16.96;86.99;100698.34;5049461;28;20710;-63
2022/10/26 08:36:05;;;;;;;7.30;3.33;;;;;;;17.02;86.30;100696.75;5052593;28;20272;-62
2022/10/26 08:38:33;;;;;;;6.53;3.60;;;;;;;17.02;86.96;100702.13;5047618;28;20200;-62
2022/10/26 08:41:08;;;;;;;9.33;3.70;;;;;;;17.11;86.02;100709.06;5052631;28;20637;-63
2022/10/26 08:43:40;;;;;;;5.93;3.53;;;;;;;17.05;85.73;100705.28;5048606;28;20199;-62
2022/10/26 08:46:13;;;;;;;10.80;4.23;;;;;;;17.03;86.49;100709.16;5050393;28;20302;-63
2022/10/26 08:48:44;;;;;;;10.80;4.77;;;;;;;16.99;87.06;100708.66;5058039;28;20204;-63
2022/10/26 08:51:18;;;;;;;11.27;5.37;;;;;;;17.01;87.91;100711.16;5048619;28;20243;-64
2022/10/26 08:53:54;;;;;;;12.70;4.33;;;;;;;17.10;87.76;100712.75;5048962;28;20214;-63
2022/10/26 08:56:26;;;;;;;9.97;4.00;;;;;;;17.13;88.14;100720.44;5053166;28;20204;-63
2022/10/26 08:58:57;;;;;;;9.57;3.73;;;;;;;17.19;87.76;100725.03;5052843;28;20208;-63
2022/10/26 09:01:25;;;;;;;12.60;3.93;;;;;;;17.38;86.78;100732.53;5051105;28;20207;-63
2022/10/26 09:03:52;;;;;;;8.50;3.83;;;;;;;17.47;86.98;100734.09;5048136;28;20270;-63
2022/10/26 09:06:26;;;;;;;12.07;3.83;;;;;;;17.95;85.23;100737.16;5056103;28;20365;-63
2022/10/26 09:09:02;;;;;;;7.00;3.67;;;;;;;18.22;82.35;100743.63;5058108;28;20218;-63
2022/10/26 09:11:51;;;;;;;10.83;3.53;;;;;;;18.34;81.37;100744.78;5053273;28;20211;-63
2022/10/26 09:14:23;;;;;;;8.47;3.37;;;;;;;18.28;81.20;100749.09;5053152;28;20234;-65
2022/10/26 09:17:04;;;;;;;9.50;3.47;;;;;;;18.29;81.23;100750.75;5058067;28;20207;-64
2022/10/26 09:19:48;;;;;;;9.87;3.17;;;;;;;18.26;81.54;100751.13;5051231;28;20195;-63
2022/10/26 09:22:23;;;;;;;10.93;3.37;;;;;;;18.65;80.38;100739.09;5050403;28;20212;-64
2022/10/26 09:24:54;;;;;;;8.80;3.93;;;;;;;19.13;77.08;100746.28;5056179;28;20261;-64
2022/10/26 09:27:28;;;;;;;10.73;3.53;;;;;;;19.19;76.81;100741.97;5063015;28;20203;-63
2022/10/26 09:30:00;;;;;;;9.20;4.03;;;;;;;19.17;76.51;100744.84;5048917;28;20207;-62
2022/10/26 09:32:41;;;;;;;5.37;3.13;;;;;;;19.22;76.64;100738.06;5050243;28;20212;-64
2022/10/26 09:35:16;;;;;;;7.27;3.67;;;;;;;19.11;76.66;100742.97;5055392;28;20233;-64
2022/10/26 09:37:49;;;;;;;8.03;4.20;;;;;;;19.09;77.25;100747.69;5048903;28;20231;-62
2022/10/26 09:40:22;;;;;;;8.33;3.27;;;;;;;19.10;77.91;100751.22;5055344;28;20214;-62
2022/10/26 09:42:58;;;;;;;8.13;3.57;;;;;;;19.13;77.94;100748.16;5057594;28;20559;-63
2022/10/26 09:45:31;;;;;;;8.87;3.37;;;;;;;19.55;76.86;100755.25;5053738;28;20261;-63
2022/10/26 09:48:05;;;;;;;10.37;3.27;;;;;;;20.03;74.28;100755.22;5050289;28;20208;-64
2022/10/26 09:50:36;;;;;;;12.07;3.20;;;;;;;20.47;71.63;100752.03;5052061;28;20212;-64
2022/10/26 09:53:05;;;;;;;9.50;3.20;;;;;;;20.29;71.96;100757.97;5051696;28;20203;-63
2022/10/26 09:55:35;;;;;;;11.30;4.00;;;;;;;20.28;71.65;100757.16;5049878;28;20319;-62
2022/10/26 09:58:12;;;;;;;17.80;4.23;;;;;;;20.18;72.05;100758.56;5053312;28;20204;-63
2022/10/26 10:00:41;;;;;;;9.60;3.70;;;;;;;20.00;73.36;100769.91;5053090;28;20570;-64
2022/10/26 10:03:19;;;;;;;11.50;3.80;;;;;;;20.01;73.76;100779.66;5053458;28;20213;-64
2022/10/26 10:05:47;;;;;;;10.90;3.33;;;;;;;20.04;73.11;100779.25;5056074;28;20287;-64
2022/10/26 10:08:22;;;;;;;8.23;3.03;;;;;;;20.00;73.50;100771.78;5059127;28;20215;-64
2022/10/26 10:10:58;;;;;;;11.00;3.20;;;;;;;20.10;73.21;100778.44;5064480;28;20211;-64
2022/10/26 10:13:30;;;;;;;10.23;3.10;;;;;;;20.04;73.52;100773.88;5053764;28;20235;-63
2022/10/26 10:16:04;;;;;;;7.67;2.77;;;;;;;20.53;72.51;100778.97;5057178;28;20204;-63
2022/10/26 10:18:32;;;;;;;7.73;2.53;;;;;;;21.52;68.23;100778.09;5056353;28;21391;-61
2022/10/26 10:21:00;;;;;;;7.53;2.93;;;;;;;22.66;63.62;100787.06;5056891;28;20204;-62
2022/10/26 10:23:31;;;;;;;9.53;3.13;;;;;;;23.26;60.39;100790.94;5051284;28;20211;-63
2022/10/26 10:26:00;;;;;;;7.73;2.43;;;;;;;24.59;55.58;100796.41;5057016;28;20233;-63
2022/10/26 10:28:30;;;;;;;8.57;2.70;;;;;;;24.17;55.69;100803.66;5058776;28;20203;-63
2022/10/26 10:30:59;;;;;;;6.67;2.27;;;;;;;23.26;58.04;100799.06;5063918;28;20207;-63
2022/10/26 10:33:36;;;;;;;10.23;2.77;;;;;;;22.47;61.61;100809.66;5061075;28;20648;-63
2022/10/26 10:36:08;;;;;;;11.33;2.50;;;;;;;21.99;63.99;100809.28;5062352;28;20210;-63
2022/10/26 10:38:39;;;;;;;6.00;2.17;;;;;;;21.53;66.13;100809.44;5058327;28;20211;-62
2022/10/26 10:41:16;;;;;;;5.67;2.43;;;;;;;21.44;66.70;100813.41;5071838;28;20218;-62
2022/10/26 10:43:49;;;;;;;7.00;2.60;;;;;;;21.59;65.79;100816.69;5060003;28;20203;-64
2022/10/26 10:46:22;;;;;;;10.07;2.43;;;;;;;21.58;66.62;100817.72;5057236;28;20258;-63
2022/10/26 10:48:55;;;;;;;14.10;2.60;;;;;;;21.98;65.83;100821.97;5060734;28;20642;-64
2022/10/26 10:51:25;;;;;;;5.33;2.43;;;;;;;22.16;64.35;100825.84;5054984;28;20205;-64
2022/10/26 10:53:55;;;;;;;10.40;2.53;;;;;;;22.16;65.08;100832.09;5054457;28;20218;-64
2022/10/26 10:56:34;;;;;;;9.53;2.80;;;;;;;22.45;64.32;100833.34;5056256;28;20562;-64
2022/10/26 10:59:22;;;;;;;5.85;2.30;;;;;;;22.38;64.57;100843.38;5057425;28;20249;-64
2022/10/26 11:01:56;;;;;;;11.63;3.00;;;;;;;22.19;65.16;100833.50;5054526;28;20644;-64
2022/10/26 11:04:51;;;;;;;6.75;2.35;;;;;;;22.03;65.77;100835.66;5056723;28;20211;-64
2022/10/26 11:07:22;;;;;;;9.35;3.42;;;;;;;21.90;66.22;100835.66;5060187;28;20641;-64
2022/10/26 11:09:53;;;;;;;8.53;2.53;;;;;;;21.70;66.67;100840.31;5060287;28;20207;-64
2022/10/26 11:12:30;;;;;;;7.80;2.47;;;;;;;21.62;67.10;100835.16;5062881;28;20219;-65
2022/10/26 11:15:04;;;;;;;7.70;2.70;;;;;;;21.36;68.00;100834.16;5061770;28;20207;-64
2022/10/26 11:17:38;;;;;;;10.70;2.80;;;;;;;21.09;69.56;100843.28;5059203;28;20716;-66
2022/10/26 11:20:12;;;;;;;8.77;2.73;;;;;;;20.90;70.58;100846.78;5063212;28;20220;-66
2022/10/26 11:22:59;;;;;;;7.83;2.40;;;;;;;20.71;71.68;100847.59;5057564;28;20708;-64
2022/10/26 11:25:33;;;;;;;10.13;2.40;;;;;;;20.59;72.74;100847.34;5060694;28;20330;-65
2022/10/26 11:28:05;;;;;;;9.33;2.63;;;;;;;20.54;73.63;100849.84;5059583;28;20203;-64
2022/10/26 11:30:39;;;;;;;10.03;2.80;;;;;;;20.48;73.92;100854.19;5059027;28;20208;-64
2022/10/26 11:33:15;;;;;;;8.90;2.80;;;;;;;20.50;73.82;100849.41;5057489;28;20215;-64
2022/10/26 11:35:46;;;;;;;10.90;3.37;;;;;;;20.43;74.57;100853.13;5059337;28;20653;-64
2022/10/26 11:38:21;;;;;;;5.23;2.40;;;;;;;20.39;73.90;100862.66;5057267;28;20214;-63
2022/10/26 11:41:13;;;;;;;12.80;3.03;;;;;;;20.21;75.79;100860.50;5053995;28;20200;-64